Time;durP1;ratioP1;P1;durP2;ratioP2;P2;SDS_P1;SDS_P2;PMS_P1;PMS_P2;Temp;Humidity;BMP_temperature;BMP_pressure;BME280_temperature;BME280_humidity;BME280_pressure;Samples;Min_cycle;Max_cycle;Signal;HPM_P1;HPM_P2
2021/07/03 00:01:38;;;;;;;7.82;3.55;;;;;;;16.34;80.38;98663.72;5133969;27;20114;-62
2021/07/03 00:04:03;;;;;;;6.18;3.75;;;;;;;16.35;80.33;98673.31;5134303;27;20396;-62
2021/07/03 00:06:29;;;;;;;5.40;3.38;;;;;;;16.40;80.18;98667.88;5133983;27;20082;-63
2021/07/03 00:08:55;;;;;;;4.72;3.30;;;;;;;16.45;79.75;98667.81;5133789;27;20132;-63
2021/07/03 00:11:21;;;;;;;4.43;3.40;;;;;;;16.46;79.87;98672.06;5133843;27;20046;-64
2021/07/03 00:13:47;;;;;;;3.78;3.30;;;;;;;16.48;79.80;98667.22;5133959;27;20431;-62
2021/07/03 00:16:12;;;;;;;4.50;3.75;;;;;;;16.51;79.69;98671.19;5134119;27;20047;-62
2021/07/03 00:18:38;;;;;;;3.72;3.33;;;;;;;16.49;79.87;98662.66;5133605;27;20195;-63
2021/07/03 00:21:04;;;;;;;4.40;3.30;;;;;;;16.54;79.68;98668.72;5133690;27;20079;-62
2021/07/03 00:23:31;;;;;;;6.38;3.40;;;;;;;16.58;79.32;98664.34;5133784;27;20050;-63
2021/07/03 00:25:58;;;;;;;3.78;3.38;;;;;;;16.61;79.66;98667.53;5133866;27;20063;-63
2021/07/03 00:28:24;;;;;;;3.83;3.22;;;;;;;16.60;79.51;98668.63;5133859;27;20039;-63
2021/07/03 00:30:49;;;;;;;5.35;3.70;;;;;;;16.54;80.05;98673.28;5133516;27;20050;-62
2021/07/03 00:33:15;;;;;;;4.95;3.50;;;;;;;16.52;80.17;98670.09;5115031;27;20163;-63
2021/07/03 00:35:41;;;;;;;4.63;3.60;;;;;;;16.48;80.51;98666.44;5133389;27;20131;-63
2021/07/03 00:38:07;;;;;;;6.22;3.70;;;;;;;16.48;80.32;98655.72;5133383;27;20034;-62
2021/07/03 00:40:32;;;;;;;4.95;3.70;;;;;;;16.44;80.73;98660.88;5133382;27;20073;-62
2021/07/03 00:42:58;;;;;;;4.90;3.60;;;;;;;16.44;80.77;98660.88;5114833;27;20583;-63
2021/07/03 00:45:25;;;;;;;5.70;3.80;;;;;;;16.44;80.80;98662.75;5114190;27;20067;-62
2021/07/03 00:47:53;;;;;;;4.68;3.80;;;;;;;16.42;81.04;98664.94;5114655;27;20043;-63
2021/07/03 00:50:20;;;;;;;5.50;3.45;;;;;;;16.44;80.88;98666.22;5133281;27;20417;-62
2021/07/03 00:52:46;;;;;;;5.70;4.25;;;;;;;16.43;81.03;98669.97;5133302;27;20047;-63
2021/07/03 00:55:18;;;;;;;5.95;4.00;;;;;;;16.38;81.28;98666.59;5114832;27;20082;-63
2021/07/03 00:57:46;;;;;;;4.30;3.90;;;;;;;16.40;81.29;98670.56;5114595;27;20129;-62
2021/07/03 01:00:14;;;;;;;5.60;4.03;;;;;;;16.41;81.43;98676.69;5114656;27;20407;-62
2021/07/03 01:02:40;;;;;;;9.95;4.43;;;;;;;16.42;81.23;98675.63;5133176;27;20092;-62
2021/07/03 01:05:08;;;;;;;10.35;4.30;;;;;;;16.43;81.44;98679.88;5133139;27;20133;-62
2021/07/03 01:07:36;;;;;;;5.80;4.10;;;;;;;16.43;81.42;98683.34;5114453;27;20126;-62
2021/07/03 01:10:04;;;;;;;4.50;3.88;;;;;;;16.44;81.39;98684.97;5114624;27;20047;-62
2021/07/03 01:12:32;;;;;;;8.35;4.75;;;;;;;16.44;81.38;98674.25;5114560;27;20408;-62
2021/07/03 01:14:58;;;;;;;6.05;3.78;;;;;;;16.43;81.58;98671.88;5113909;28;20146;-62
2021/07/03 01:17:33;;;;;;;6.63;3.92;;;;;;;16.47;81.31;98678.19;5132989;27;20039;-63
2021/07/03 01:20:01;;;;;;;5.75;4.15;;;;;;;16.49;81.31;98668.81;5113811;27;20500;-62
2021/07/03 01:22:29;;;;;;;5.30;4.05;;;;;;;16.47;81.31;98667.50;5132870;27;20047;-63
2021/07/03 01:24:54;;;;;;;5.47;3.90;;;;;;;16.48;81.37;98669.09;5132745;27;20435;-62
2021/07/03 01:27:21;;;;;;;7.07;3.90;;;;;;;16.42;81.77;98671.06;5114098;27;20126;-63
2021/07/03 01:29:47;;;;;;;4.15;3.75;;;;;;;16.39;81.80;98660.97;5132743;27;20039;-62
2021/07/03 01:32:14;;;;;;;6.60;4.18;;;;;;;16.41;81.99;98674.03;5114241;27;20104;-62
2021/07/03 01:34:40;;;;;;;6.38;4.25;;;;;;;16.41;81.87;98672.13;5132472;27;20035;-63
2021/07/03 01:37:13;;;;;;;5.97;4.57;;;;;;;16.39;81.86;98668.97;5132480;27;20047;-63
2021/07/03 01:39:44;;;;;;;5.10;4.03;;;;;;;16.39;82.01;98679.69;5113639;28;20498;-62
2021/07/03 01:42:13;;;;;;;6.03;4.30;;;;;;;16.35;82.29;98665.28;5114584;28;20043;-62
2021/07/03 01:44:40;;;;;;;8.25;4.80;;;;;;;16.34;82.14;98672.53;5131908;27;20056;-61
2021/07/03 01:47:06;;;;;;;7.47;4.35;;;;;;;16.34;82.30;98672.53;5113807;28;20499;-63
2021/07/03 01:49:39;;;;;;;5.15;4.25;;;;;;;16.33;82.60;98678.97;5132168;28;20064;-62
2021/07/03 01:52:07;;;;;;;6.55;4.55;;;;;;;16.40;82.01;98681.25;5113522;28;20571;-63
2021/07/03 01:54:35;;;;;;;6.20;3.72;;;;;;;16.41;81.69;98677.50;5113824;28;20043;-60
2021/07/03 01:57:04;;;;;;;7.53;4.35;;;;;;;16.44;81.68;98682.28;5132204;28;20050;-61
2021/07/03 01:59:42;;;;;;;7.05;4.38;;;;;;;16.40;81.88;98686.59;5113591;28;20047;-61
2021/07/03 02:02:10;;;;;;;5.40;4.43;;;;;;;16.45;81.88;98685.75;5113744;28;20453;-62
2021/07/03 02:04:39;;;;;;;7.65;4.00;;;;;;;16.46;81.69;98690.00;5113515;28;20051;-62
2021/07/03 02:07:08;;;;;;;12.80;4.45;;;;;;;16.50;81.66;98685.63;5113700;28;20393;-62
2021/07/03 02:09:36;;;;;;;7.25;4.45;;;;;;;16.54;81.60;98697.38;5132179;28;20039;-61
2021/07/03 02:12:05;;;;;;;5.60;4.15;;;;;;;16.59;81.37;98683.91;5113750;28;20045;-61
2021/07/03 02:14:45;;;;;;;4.70;4.07;;;;;;;16.65;81.42;98693.44;5113516;28;20047;-61
2021/07/03 02:17:29;;;;;;;5.30;4.13;;;;;;;16.70;80.90;98689.84;5113720;28;20039;-61
2021/07/03 02:19:57;;;;;;;6.65;4.35;;;;;;;16.72;80.82;98688.47;5113514;28;20039;-61
2021/07/03 02:22:33;;;;;;;5.95;4.53;;;;;;;16.78;80.41;98681.19;5113986;28;20043;-62
2021/07/03 02:24:59;;;;;;;4.97;4.10;;;;;;;16.81;80.38;98683.28;5113546;28;20043;-62
2021/07/03 02:27:25;;;;;;;7.80;4.32;;;;;;;16.85;80.10;98683.47;5132790;27;20500;-62
2021/07/03 02:29:59;;;;;;;5.65;4.30;;;;;;;16.92;80.12;98681.22;5117236;27;20099;-62
2021/07/03 02:32:26;;;;;;;6.35;4.20;;;;;;;16.90;79.91;98673.47;5117815;27;20035;-61
2021/07/03 02:34:52;;;;;;;7.90;5.03;;;;;;;16.94;79.99;98681.69;5117069;27;20519;-62
2021/07/03 02:37:18;;;;;;;5.30;4.28;;;;;;;17.00;79.51;98683.19;5117465;27;20088;-63
2021/07/03 02:39:44;;;;;;;4.72;4.28;;;;;;;17.06;79.21;98687.38;5135653;27;20051;-62
2021/07/03 02:42:11;;;;;;;8.90;4.72;;;;;;;17.05;79.23;98687.66;5135672;27;20047;-62
2021/07/03 02:44:37;;;;;;;6.53;4.35;;;;;;;17.13;79.21;98697.69;5116557;27;20528;-61
2021/07/03 02:47:03;;;;;;;7.47;4.38;;;;;;;17.18;78.63;98690.34;5135477;27;20051;-63
2021/07/03 02:49:29;;;;;;;9.20;4.80;;;;;;;17.31;78.00;98690.63;5117040;27;20054;-61
2021/07/03 02:51:56;;;;;;;7.57;4.75;;;;;;;17.33;77.73;98686.56;5117098;27;20510;-62
2021/07/03 02:54:23;;;;;;;6.70;4.50;;;;;;;17.38;77.38;98697.19;5116854;27;20050;-62
2021/07/03 02:56:49;;;;;;;6.22;4.50;;;;;;;17.42;77.01;98692.03;5117002;27;20043;-61
2021/07/03 02:59:15;;;;;;;7.43;4.40;;;;;;;17.40;77.31;98699.56;5117047;27;20046;-63
2021/07/03 03:01:42;;;;;;;6.13;4.50;;;;;;;17.39;76.95;98695.31;5116912;27;20172;-62
2021/07/03 03:04:09;;;;;;;6.43;4.43;;;;;;;17.35;77.06;98700.44;5135435;27;20039;-62
2021/07/03 03:06:36;;;;;;;4.90;4.35;;;;;;;17.33;77.09;98701.84;5116798;27;20061;-62
2021/07/03 03:09:02;;;;;;;5.57;4.95;;;;;;;17.37;77.03;98706.31;5116669;27;20039;-62
2021/07/03 03:11:29;;;;;;;5.88;4.18;;;;;;;17.44;76.83;98708.56;5135400;27;20103;-62
2021/07/03 03:13:55;;;;;;;5.20;4.03;;;;;;;17.51;76.37;98705.53;5135179;27;20114;-61
2021/07/03 03:16:24;;;;;;;4.75;3.72;;;;;;;17.55;75.88;98714.53;5135175;27;20043;-62
2021/07/03 03:18:53;;;;;;;4.50;4.10;;;;;;;17.45;76.23;98715.53;5117015;27;20400;-61
2021/07/03 03:21:19;;;;;;;4.57;4.03;;;;;;;17.46;75.95;98717.91;5134463;27;20070;-62
2021/07/03 03:23:46;;;;;;;5.85;4.00;;;;;;;17.55;75.90;98711.84;5116350;27;20088;-62
2021/07/03 03:26:13;;;;;;;6.97;4.15;;;;;;;17.62;75.64;98714.94;5099394;27;20047;-62
2021/07/03 03:28:42;;;;;;;6.93;3.92;;;;;;;17.62;75.62;98713.03;5134602;27;20149;-61
2021/07/03 03:31:08;;;;;;;5.15;4.13;;;;;;;17.66;75.34;98714.03;5116373;27;20466;-61
2021/07/03 03:33:39;;;;;;;4.68;3.90;;;;;;;17.54;75.53;98712.97;5134580;27;20047;-61
2021/07/03 03:36:06;;;;;;;5.63;3.63;;;;;;;17.50;75.36;98710.09;5116227;27;20084;-61
2021/07/03 03:38:32;;;;;;;5.13;3.90;;;;;;;17.52;75.55;98710.56;5098686;27;20035;-61
2021/07/03 03:40:59;;;;;;;5.38;4.25;;;;;;;17.54;75.26;98713.75;5116030;27;20069;-62
2021/07/03 03:43:26;;;;;;;8.02;4.25;;;;;;;17.53;75.56;98716.72;5115966;27;20042;-62
2021/07/03 03:45:52;;;;;;;4.70;3.80;;;;;;;17.57;75.42;98715.03;5115667;27;20080;-61
2021/07/03 03:48:18;;;;;;;5.82;4.30;;;;;;;17.63;75.00;98716.50;5116255;27;20080;-61
2021/07/03 03:50:51;;;;;;;6.20;3.83;;;;;;;17.65;75.13;98712.44;5116254;27;20039;-61
2021/07/03 03:53:19;;;;;;;6.15;4.15;;;;;;;17.66;74.80;98705.19;5116030;27;20158;-61
2021/07/03 03:55:46;;;;;;;6.07;4.05;;;;;;;17.66;75.32;98711.34;5115914;27;20087;-61
2021/07/03 03:58:12;;;;;;;4.30;3.90;;;;;;;17.67;74.76;98704.09;5115792;27;20031;-62
2021/07/03 04:00:40;;;;;;;6.28;4.32;;;;;;;17.60;75.17;98715.22;5115808;27;20043;-61
2021/07/03 04:03:05;;;;;;;5.10;3.72;;;;;;;17.64;75.40;98718.09;5115734;27;20041;-63
2021/07/03 04:05:37;;;;;;;5.60;4.05;;;;;;;17.75;74.36;98716.78;5134248;27;20099;-62
2021/07/03 04:08:04;;;;;;;5.65;3.55;;;;;;;17.79;74.23;98723.16;5134329;27;20035;-62
2021/07/03 04:10:30;;;;;;;6.45;3.70;;;;;;;17.82;74.08;98722.56;5115863;27;20542;-62
2021/07/03 04:12:56;;;;;;;5.78;3.72;;;;;;;17.97;73.50;98726.00;5115558;27;20054;-62
2021/07/03 04:15:22;;;;;;;4.13;3.65;;;;;;;18.15;72.82;98727.75;5133939;27;20043;-61
2021/07/03 04:17:48;;;;;;;7.82;5.13;;;;;;;18.17;72.69;98733.59;5133905;27;20043;-64
2021/07/03 04:20:14;;;;;;;9.98;3.50;;;;;;;18.18;71.97;98732.50;5133878;27;20507;-61
2021/07/03 04:22:41;;;;;;;8.10;3.42;;;;;;;18.20;71.79;98734.88;5115137;27;20058;-62
2021/07/03 04:25:11;;;;;;;4.53;3.78;;;;;;;18.22;71.67;98728.13;5133724;27;20050;-61
2021/07/03 04:27:37;;;;;;;8.00;4.22;;;;;;;18.28;71.93;98723.44;5133819;27;20137;-62
2021/07/03 04:30:05;;;;;;;8.02;3.72;;;;;;;18.37;71.49;98727.75;5115130;27;20172;-62
2021/07/03 04:32:32;;;;;;;4.80;3.72;;;;;;;18.52;70.97;98723.13;5133493;27;20079;-64
2021/07/03 04:34:58;;;;;;;6.00;3.83;;;;;;;18.72;69.93;98719.94;5133509;27;20256;-61
2021/07/03 04:37:24;;;;;;;4.07;3.58;;;;;;;19.05;68.67;98720.44;5114906;27;20095;-64
2021/07/03 04:39:50;;;;;;;5.00;4.13;;;;;;;19.56;67.82;98720.94;5114621;27;20039;-62
2021/07/03 04:42:16;;;;;;;5.80;3.75;;;;;;;20.04;65.36;98720.09;5133256;27;20404;-65
2021/07/03 04:44:41;;;;;;;5.60;3.60;;;;;;;20.19;64.68;98732.28;5132671;27;20085;-62
2021/07/03 04:47:07;;;;;;;4.05;3.65;;;;;;;20.58;62.98;98741.31;5133297;27;20117;-63
2021/07/03 04:49:33;;;;;;;4.45;3.50;;;;;;;20.91;61.90;98728.06;5132782;27;20051;-62
2021/07/03 04:52:00;;;;;;;5.20;3.50;;;;;;;21.26;60.72;98725.25;5132800;27;20050;-62
2021/07/03 04:54:26;;;;;;;4.28;3.08;;;;;;;21.50;58.87;98728.19;5133050;27;20035;-61
2021/07/03 04:57:06;;;;;;;5.78;3.10;;;;;;;21.93;58.27;98729.81;5114548;27;20035;-61
2021/07/03 04:59:36;;;;;;;5.18;3.30;;;;;;;21.85;56.96;98719.09;5097685;27;20049;-60
2021/07/03 05:02:03;;;;;;;4.10;2.78;;;;;;;21.80;57.73;98722.78;5114526;27;20043;-60
2021/07/03 05:04:29;;;;;;;5.78;2.85;;;;;;;21.65;57.61;98726.84;5114489;27;20043;-60
2021/07/03 05:06:55;;;;;;;3.78;2.80;;;;;;;21.07;59.42;98721.06;5132707;27;20125;-62
2021/07/03 05:09:21;;;;;;;3.58;3.28;;;;;;;21.19;59.23;98722.28;5114420;28;20073;-61
2021/07/03 05:11:46;;;;;;;4.20;3.13;;;;;;;21.13;59.63;98723.59;5133052;27;20439;-62
2021/07/03 05:14:12;;;;;;;4.07;3.28;;;;;;;21.16;59.26;98720.25;5132948;27;20035;-61
2021/07/03 05:16:38;;;;;;;3.42;3.10;;;;;;;20.96;60.08;98727.91;5132698;27;20566;-62
2021/07/03 05:19:04;;;;;;;3.45;3.15;;;;;;;20.77;60.47;98733.69;5114540;27;20045;-62
2021/07/03 05:21:29;;;;;;;3.70;3.13;;;;;;;20.64;61.05;98742.72;5132679;27;20039;-64
2021/07/03 05:23:55;;;;;;;5.30;3.15;;;;;;;20.56;61.13;98732.75;5132381;27;20126;-62
2021/07/03 05:26:21;;;;;;;4.13;3.22;;;;;;;20.51;61.40;98732.91;5132678;27;20076;-64
2021/07/03 05:28:47;;;;;;;4.47;3.25;;;;;;;20.47;61.19;98735.44;5132668;27;20039;-62
2021/07/03 05:31:12;;;;;;;3.28;2.75;;;;;;;20.71;60.82;98731.47;5114498;28;20138;-62
2021/07/03 05:33:38;;;;;;;3.63;2.80;;;;;;;20.63;60.55;98741.94;5132433;27;20039;-62
2021/07/03 05:36:04;;;;;;;3.58;3.00;;;;;;;20.70;59.90;98737.97;5132811;27;20054;-63
2021/07/03 05:38:37;;;;;;;2.80;2.60;;;;;;;20.79;60.05;98744.13;5132400;27;20074;-63
2021/07/03 05:41:03;;;;;;;3.33;2.97;;;;;;;20.71;60.37;98732.25;5132800;27;20050;-61
2021/07/03 05:43:28;;;;;;;3.20;2.88;;;;;;;20.94;59.42;98753.59;5114058;27;20043;-62
2021/07/03 05:45:54;;;;;;;2.70;2.38;;;;;;;20.96;59.13;98746.75;5131867;27;20066;-62
2021/07/03 05:48:20;;;;;;;2.92;2.60;;;;;;;21.08;59.03;98744.19;5132524;27;20039;-64
2021/07/03 05:50:46;;;;;;;6.05;3.92;;;;;;;21.23;58.68;98744.78;5132615;28;20054;-62
2021/07/03 05:53:12;;;;;;;2.40;2.10;;;;;;;21.47;57.56;98757.69;5113921;28;20041;-62
2021/07/03 05:55:37;;;;;;;2.30;2.05;;;;;;;21.28;57.65;98761.56;5132394;28;20043;-62
2021/07/03 05:58:03;;;;;;;2.58;2.15;;;;;;;21.45;57.51;98755.34;5132215;28;20039;-62
2021/07/03 06:00:29;;;;;;;3.08;2.53;;;;;;;21.58;57.14;98750.81;5132069;28;20553;-62
2021/07/03 06:02:55;;;;;;;2.63;2.30;;;;;;;21.58;56.82;98747.34;5135546;27;20039;-62
2021/07/03 06:05:20;;;;;;;2.38;2.15;;;;;;;21.40;56.70;98762.81;5136697;27;20058;-62
2021/07/03 06:07:46;;;;;;;3.17;2.00;;;;;;;21.33;57.15;98747.91;5136578;27;20139;-64
2021/07/03 06:10:13;;;;;;;2.90;2.60;;;;;;;21.51;57.25;98754.03;5136458;27;20053;-62
2021/07/03 06:12:39;;;;;;;4.13;2.50;;;;;;;21.79;56.92;98745.47;5136262;27;20032;-63
2021/07/03 06:15:06;;;;;;;3.10;2.40;;;;;;;21.89;55.87;98747.78;5136323;27;20129;-63
2021/07/03 06:17:32;;;;;;;2.70;2.40;;;;;;;21.82;56.52;98741.31;5136422;27;20050;-63
2021/07/03 06:19:58;;;;;;;2.55;2.30;;;;;;;21.57;56.56;98734.97;5136204;27;20430;-62
2021/07/03 06:22:24;;;;;;;3.00;2.33;;;;;;;21.54;56.81;98748.00;5135935;27;20118;-64
2021/07/03 06:24:50;;;;;;;2.40;2.20;;;;;;;21.38;57.92;98730.00;5117193;27;20043;-63
2021/07/03 06:27:16;;;;;;;5.65;2.25;;;;;;;21.50;57.95;98741.69;5135942;27;20046;-63
2021/07/03 06:29:42;;;;;;;3.33;2.55;;;;;;;21.41;58.39;98745.50;5135598;27;20039;-62
2021/07/03 06:32:08;;;;;;;2.80;2.55;;;;;;;21.44;57.84;98740.28;5117144;27;20031;-62
2021/07/03 06:34:34;;;;;;;3.08;2.78;;;;;;;21.35;58.69;98749.47;5117383;27;20104;-62
2021/07/03 06:37:00;;;;;;;3.95;2.75;;;;;;;21.25;59.07;98737.94;5117387;27;20043;-63
2021/07/03 06:39:26;;;;;;;2.53;2.33;;;;;;;21.10;59.49;98751.97;5083505;27;20047;-62
2021/07/03 06:41:51;;;;;;;2.78;2.40;;;;;;;21.40;57.94;98743.94;5135363;27;20454;-63
2021/07/03 06:44:17;;;;;;;3.05;2.50;;;;;;;21.39;58.59;98753.16;5135378;27;20051;-62
2021/07/03 06:46:45;;;;;;;3.08;2.50;;;;;;;21.36;58.87;98753.78;5135421;27;20115;-62
2021/07/03 06:49:11;;;;;;;4.95;2.70;;;;;;;21.45;58.52;98749.16;5117315;27;20070;-62
2021/07/03 06:51:37;;;;;;;3.05;2.47;;;;;;;21.46;59.08;98765.00;5135676;27;20451;-64
2021/07/03 06:54:04;;;;;;;2.50;2.30;;;;;;;21.55;58.68;98771.13;5135333;27;20043;-62
2021/07/03 06:56:30;;;;;;;4.93;2.33;;;;;;;21.34;58.71;98759.47;5135648;27;20118;-61
2021/07/03 06:58:56;;;;;;;4.05;2.60;;;;;;;21.35;59.20;98750.25;5116676;27;20563;-63
2021/07/03 07:01:23;;;;;;;2.58;2.38;;;;;;;21.37;58.17;98749.97;5135640;27;20067;-61
2021/07/03 07:03:49;;;;;;;3.05;2.50;;;;;;;21.26;58.06;98753.00;5116731;27;20081;-62
2021/07/03 07:06:15;;;;;;;2.40;2.20;;;;;;;21.32;57.75;98770.59;5135130;27;20142;-64
2021/07/03 07:08:40;;;;;;;2.53;2.30;;;;;;;21.41;57.31;98759.00;5135227;27;20048;-64
2021/07/03 07:11:06;;;;;;;3.42;2.33;;;;;;;21.49;57.42;98767.03;5135505;27;20043;-63
2021/07/03 07:13:32;;;;;;;2.55;2.33;;;;;;;21.70;56.73;98760.91;5134323;27;20038;-63
2021/07/03 07:15:58;;;;;;;3.20;2.20;;;;;;;22.12;55.84;98758.25;5135417;27;20082;-63
2021/07/03 07:18:24;;;;;;;4.82;2.67;;;;;;;22.43;55.50;98763.28;5135227;27;20053;-63
2021/07/03 07:20:49;;;;;;;2.85;2.35;;;;;;;22.55;55.41;98757.94;5135315;27;20457;-62
2021/07/03 07:23:15;;;;;;;4.15;2.15;;;;;;;22.76;53.63;98766.00;5134944;27;20107;-61
2021/07/03 07:25:41;;;;;;;3.53;2.25;;;;;;;22.67;53.37;98762.59;5116436;27;20108;-61
2021/07/03 07:28:07;;;;;;;3.35;2.65;;;;;;;22.95;54.09;98764.75;5134798;27;20047;-62
2021/07/03 07:30:33;;;;;;;3.47;2.58;;;;;;;23.31;52.74;98758.59;5134989;27;20042;-61
2021/07/03 07:32:59;;;;;;;4.15;2.67;;;;;;;23.23;53.41;98768.38;5116371;27;20039;-62
2021/07/03 07:35:25;;;;;;;3.20;2.40;;;;;;;23.07;52.73;98762.06;5134969;27;20051;-61
2021/07/03 07:37:51;;;;;;;3.40;2.70;;;;;;;22.96;52.71;98769.78;5134573;27;20511;-64
2021/07/03 07:40:18;;;;;;;5.00;2.53;;;;;;;23.34;52.25;98758.69;5134689;27;20054;-62
2021/07/03 07:42:45;;;;;;;2.60;2.40;;;;;;;23.60;51.37;98765.69;5134717;27;20099;-61
2021/07/03 07:45:11;;;;;;;5.05;3.10;;;;;;;23.66;51.24;98763.56;5134155;27;20106;-63
2021/07/03 07:47:37;;;;;;;3.92;3.20;;;;;;;23.49;51.37;98751.81;5134700;27;20128;-63
2021/07/03 07:50:04;;;;;;;3.85;3.40;;;;;;;23.39;51.80;98755.00;5134400;27;20586;-63
2021/07/03 07:52:31;;;;;;;4.07;3.17;;;;;;;23.26;52.57;98762.28;5134635;27;20042;-63
2021/07/03 07:54:57;;;;;;;3.70;3.40;;;;;;;23.13;52.46;98763.41;5134400;27;20055;-63
2021/07/03 07:57:23;;;;;;;5.30;3.80;;;;;;;23.21;51.51;98756.34;5134109;27;20054;-64
2021/07/03 07:59:49;;;;;;;5.57;3.28;;;;;;;23.25;52.04;98768.84;5115607;27;20051;-62
2021/07/03 08:02:15;;;;;;;3.75;3.33;;;;;;;23.09;52.01;98766.00;5115731;27;20049;-64
2021/07/03 08:04:41;;;;;;;4.07;3.67;;;;;;;23.00;53.19;98764.50;5115672;27;20043;-63
2021/07/03 08:07:07;;;;;;;4.90;3.72;;;;;;;22.98;52.53;98774.88;5115637;27;20049;-62
2021/07/03 08:09:33;;;;;;;4.25;3.30;;;;;;;23.15;53.87;98765.75;5134292;27;20074;-60
2021/07/03 08:11:59;;;;;;;5.72;3.40;;;;;;;23.10;52.38;98758.69;5134261;27;20122;-64
2021/07/03 08:14:25;;;;;;;3.70;3.40;;;;;;;23.08;52.80;98780.63;5133881;27;20142;-62
2021/07/03 08:16:51;;;;;;;3.95;3.55;;;;;;;23.07;52.63;98773.66;5133671;27;20047;-63
2021/07/03 08:19:17;;;;;;;3.72;3.33;;;;;;;22.87;52.72;98775.25;5133671;27;20050;-64
2021/07/03 08:21:43;;;;;;;3.78;3.38;;;;;;;22.62;54.24;98782.50;5115179;27;20043;-62
2021/07/03 08:24:10;;;;;;;4.20;3.80;;;;;;;22.55;53.34;98784.94;5133454;27;20066;-62
2021/07/03 08:26:36;;;;;;;5.88;3.67;;;;;;;22.62;53.08;98779.03;5132628;27;20477;-63
2021/07/03 08:29:02;;;;;;;4.25;3.63;;;;;;;22.71;52.99;98787.00;5133762;27;20035;-61
2021/07/03 08:31:28;;;;;;;4.07;3.67;;;;;;;22.97;52.31;98784.09;5133485;27;20164;-63
2021/07/03 08:33:54;;;;;;;5.53;3.60;;;;;;;23.10;51.76;98796.53;5133456;27;20046;-62
2021/07/03 08:36:20;;;;;;;4.40;3.30;;;;;;;23.03;51.87;98788.97;5133376;27;20039;-62
2021/07/03 08:38:46;;;;;;;3.40;3.10;;;;;;;23.25;51.03;98793.16;5114860;27;20046;-62
2021/07/03 08:41:12;;;;;;;3.65;3.35;;;;;;;23.17;50.99;98793.25;5133668;27;20047;-62
2021/07/03 08:43:46;;;;;;;6.05;3.85;;;;;;;23.18;51.30;98797.53;5133435;27;20131;-62
2021/07/03 08:46:12;;;;;;;3.67;3.38;;;;;;;23.12;50.96;98795.06;5133092;27;20058;-62
2021/07/03 08:48:38;;;;;;;3.30;3.00;;;;;;;23.02;51.61;98803.59;5133232;27;20049;-62
2021/07/03 08:51:03;;;;;;;4.05;3.65;;;;;;;23.24;52.12;98809.75;5133553;27;20047;-61
2021/07/03 08:53:29;;;;;;;5.93;3.40;;;;;;;23.35;51.11;98795.44;5133343;27;20500;-62
2021/07/03 08:55:55;;;;;;;5.43;3.90;;;;;;;23.33;50.72;98807.72;5133435;27;20504;-63
2021/07/03 08:58:21;;;;;;;4.05;3.65;;;;;;;23.15;50.77;98806.31;5114907;27;20039;-64
2021/07/03 09:00:48;;;;;;;4.78;4.10;;;;;;;22.98;50.88;98804.59;5133346;27;20472;-63
2021/07/03 09:03:25;;;;;;;5.03;3.80;;;;;;;22.90;51.24;98804.31;5132878;27;20047;-62
2021/07/03 09:05:56;;;;;;;5.10;4.05;;;;;;;22.88;51.91;98794.97;5133139;27;20047;-62
2021/07/03 09:08:24;;;;;;;6.00;3.88;;;;;;;22.90;52.74;98808.94;5133179;27;20046;-62
2021/07/03 09:11:10;;;;;;;8.27;4.50;;;;;;;22.94;52.46;98798.25;5133197;27;20047;-62
2021/07/03 09:13:37;;;;;;;6.28;4.40;;;;;;;22.98;52.70;98791.88;5114311;27;20061;-62
2021/07/03 09:16:05;;;;;;;5.70;3.90;;;;;;;22.89;52.64;98805.44;5132525;27;20047;-62
2021/07/03 09:18:32;;;;;;;5.20;4.28;;;;;;;22.86;52.97;98792.59;5132641;27;20038;-63
2021/07/03 09:20:59;;;;;;;5.35;3.95;;;;;;;22.97;53.05;98790.31;5132729;27;20488;-63
2021/07/03 09:23:36;;;;;;;4.85;4.25;;;;;;;23.41;52.58;98792.50;5097516;27;20142;-63
2021/07/03 09:26:11;;;;;;;6.05;4.35;;;;;;;23.02;53.46;98798.19;5132918;27;20054;-62
2021/07/03 09:28:39;;;;;;;6.00;4.80;;;;;;;23.08;53.22;98794.13;5132593;27;20088;-62
2021/07/03 09:31:08;;;;;;;8.18;4.47;;;;;;;23.12;53.84;98791.59;5132887;27;20134;-62
2021/07/03 09:33:48;;;;;;;6.22;4.95;;;;;;;23.06;53.97;98790.19;5132545;27;20423;-62
2021/07/03 09:36:25;;;;;;;8.07;5.60;;;;;;;22.90;54.57;98796.22;5132690;27;20556;-63
2021/07/03 09:38:52;;;;;;;7.93;4.78;;;;;;;23.03;53.83;98790.84;5132345;27;20152;-63
2021/07/03 09:41:29;;;;;;;5.60;4.40;;;;;;;22.75;54.69;98780.63;5132746;27;20042;-62
2021/07/03 09:43:57;;;;;;;6.18;4.82;;;;;;;22.63;55.13;98784.06;5132177;27;20043;-64
2021/07/03 09:46:24;;;;;;;6.03;5.10;;;;;;;22.46;54.86;98778.81;5132038;27;20530;-63
2021/07/03 09:49:17;;;;;;;11.18;5.30;;;;;;;22.68;54.76;98780.38;5132007;27;20051;-62
2021/07/03 09:51:43;;;;;;;5.85;4.45;;;;;;;;;;5132219;28;20070;-63
2021/07/03 09:54:11;;;;;;;4.60;4.18;;;;;;;22.93;54.26;98783.16;5132323;28;20127;-62
2021/07/03 09:56:39;;;;;;;5.53;4.70;;;;;;;22.97;53.81;98795.72;5132245;28;20050;-62
2021/07/03 09:59:05;;;;;;;11.73;5.13;;;;;;;23.17;53.26;98788.63;5132006;28;20053;-63
2021/07/03 10:01:31;;;;;;;6.35;4.30;;;;;;;23.21;52.45;98797.69;5132043;28;20043;-63
2021/07/03 10:04:00;;;;;;;6.53;4.88;;;;;;;23.09;53.00;98784.16;5131943;28;20035;-61
2021/07/03 10:06:31;;;;;;;6.30;4.20;;;;;;;22.98;53.58;98800.00;5132250;28;20055;-62
2021/07/03 10:09:00;;;;;;;7.07;4.30;;;;;;;23.01;52.92;98799.31;5113857;28;20130;-62
2021/07/03 10:11:28;;;;;;;5.32;4.55;;;;;;;22.99;52.60;98789.97;5113741;28;20432;-62
2021/07/03 10:14:01;;;;;;;6.32;4.60;;;;;;;22.99;52.99;98795.38;5131833;28;20524;-62
2021/07/03 10:16:28;;;;;;;7.70;6.03;;;;;;;22.86;53.80;98806.13;5132036;28;20084;-63
2021/07/03 10:19:10;;;;;;;5.00;4.47;;;;;;;22.87;53.28;98802.28;5113518;28;20031;-63
2021/07/03 10:21:36;;;;;;;8.15;4.55;;;;;;;22.78;53.08;98793.47;5132335;28;20082;-60
2021/07/03 10:24:03;;;;;;;7.05;4.90;;;;;;;22.81;53.38;98800.13;5113330;28;20445;-63
2021/07/03 10:26:38;;;;;;;7.22;4.60;;;;;;;22.79;52.47;98800.44;5113771;28;20416;-63
2021/07/03 10:29:17;;;;;;;5.88;4.55;;;;;;;23.01;53.15;98791.22;5131858;28;20043;-62
2021/07/03 10:31:45;;;;;;;5.55;4.32;;;;;;;23.00;52.63;98786.13;5113606;28;20095;-62
2021/07/03 10:34:11;;;;;;;6.00;4.88;;;;;;;22.87;52.66;98775.25;5132008;28;20039;-63
2021/07/03 10:36:37;;;;;;;7.53;4.50;;;;;;;22.87;52.82;98774.47;5132009;28;20039;-62
2021/07/03 10:39:04;;;;;;;4.70;4.30;;;;;;;23.09;52.88;98768.72;5131712;28;20035;-62
2021/07/03 10:41:32;;;;;;;4.93;4.50;;;;;;;23.39;52.20;98767.72;5132051;28;20130;-64
2021/07/03 10:44:11;;;;;;;4.75;4.32;;;;;;;23.51;50.90;98773.13;5131544;28;20035;-63
2021/07/03 10:46:40;;;;;;;6.25;3.80;;;;;;;23.45;49.96;98763.66;5131600;28;20546;-63
2021/07/03 10:49:12;;;;;;;5.60;3.80;;;;;;;23.42;50.51;98773.25;5133870;27;20046;-63
2021/07/03 10:51:39;;;;;;;4.68;4.05;;;;;;;23.08;50.91;98777.91;5135468;27;20074;-63
2021/07/03 10:54:15;;;;;;;9.10;4.10;;;;;;;23.02;51.17;98771.16;5135380;27;20066;-64
2021/07/03 10:56:46;;;;;;;5.72;4.15;;;;;;;22.75;53.15;98772.53;5135643;27;20092;-64
2021/07/03 10:59:15;;;;;;;7.80;4.28;;;;;;;22.96;52.82;98779.81;5135543;27;20467;-63
2021/07/03 11:01:41;;;;;;;5.90;4.68;;;;;;;22.94;52.76;98785.50;5135339;27;20560;-61
2021/07/03 11:04:42;;;;;;;5.97;4.30;;;;;;;22.76;53.73;98784.13;5135499;27;20050;-62
2021/07/03 11:07:12;;;;;;;7.20;4.40;;;;;;;22.76;54.57;98787.59;5135422;27;20050;-63
2021/07/03 11:09:38;;;;;;;5.93;4.20;;;;;;;22.88;54.57;98793.06;5116831;27;20039;-63
2021/07/03 11:12:21;;;;;;;4.88;4.32;;;;;;;22.83;52.39;98784.38;5135157;27;20549;-64
2021/07/03 11:14:54;;;;;;;4.97;4.10;;;;;;;22.85;53.01;98785.63;5135239;27;20498;-61
2021/07/03 11:17:23;;;;;;;4.70;4.30;;;;;;;22.84;53.92;98796.75;5134932;27;20051;-63
2021/07/03 11:19:51;;;;;;;5.18;4.63;;;;;;;22.60;55.20;98786.66;5134975;27;20057;-62
2021/07/03 11:22:27;;;;;;;6.13;4.28;;;;;;;22.36;55.56;98788.13;5134943;27;20613;-62
2021/07/03 11:24:58;;;;;;;4.90;4.22;;;;;;;22.13;56.22;98794.94;5135181;27;20042;-61
2021/07/03 11:27:37;;;;;;;4.65;4.15;;;;;;;21.72;57.23;98794.53;5135466;27;20068;-63
2021/07/03 11:30:07;;;;;;;4.82;4.40;;;;;;;21.28;58.55;98804.69;5134891;27;20043;-63
2021/07/03 11:32:33;;;;;;;5.28;4.15;;;;;;;21.24;58.63;98800.28;5134501;27;20483;-62
2021/07/03 11:35:03;;;;;;;5.95;4.18;;;;;;;21.19;58.63;98801.22;5134827;27;20129;-62
2021/07/03 11:37:31;;;;;;;6.10;4.00;;;;;;;21.09;59.25;98797.00;5134893;27;20393;-62